createdAt,value
2022-09-28T00:01:59.162Z,6.23
2022-09-28T00:04:27.658Z,6.37
2022-09-28T00:06:56.166Z,6.23
2022-09-28T00:09:24.745Z,6.87
2022-09-28T00:11:55.724Z,6.07
2022-09-28T00:14:24.467Z,6.13
2022-09-28T00:16:53.049Z,6.20
2022-09-28T00:19:21.589Z,6.20
2022-09-28T00:21:50.140Z,6.27
2022-09-28T00:24:19.954Z,6.60
2022-09-28T00:26:51.558Z,5.83
2022-09-28T00:29:24.578Z,6.10
2022-09-28T00:31:54.005Z,6.40
2022-09-28T00:34:22.509Z,6.03
2022-09-28T00:36:51.086Z,6.17
2022-09-28T00:39:19.860Z,5.67
2022-09-28T00:41:48.297Z,5.63
2022-09-28T00:44:34.536Z,5.67
2022-09-28T00:47:05.806Z,5.80
2022-09-28T00:49:35.618Z,5.80
2022-09-28T00:52:06.629Z,5.87
2022-09-28T00:54:35.617Z,6.07
2022-09-28T00:57:05.270Z,6.27
2022-09-28T00:59:34.322Z,6.10
2022-09-28T01:02:04.859Z,6.33
2022-09-28T01:04:33.493Z,5.57
2022-09-28T01:07:02.137Z,5.83
2022-09-28T01:09:30.819Z,6.23
2022-09-28T01:11:59.387Z,5.40
2022-09-28T01:14:28.326Z,5.80
2022-09-28T01:17:01.131Z,5.03
2022-09-28T01:19:48.955Z,4.83
2022-09-28T01:22:27.470Z,5.10
2022-09-28T01:24:58.390Z,4.80
2022-09-28T01:27:30.034Z,5.40
2022-09-28T01:30:05.230Z,5.10
2022-09-28T01:32:45.586Z,5.33
2022-09-28T01:35:16.170Z,4.83
2022-09-28T01:37:47.502Z,5.03
2022-09-28T01:40:17.308Z,4.97
2022-09-28T01:42:48.858Z,5.70
2022-09-28T01:45:20.222Z,5.20
2022-09-28T01:47:49.376Z,5.37
2022-09-28T01:50:19.345Z,5.70
2022-09-28T01:52:52.121Z,5.13
2022-09-28T01:55:22.510Z,5.67
2022-09-28T01:57:54.866Z,5.40
2022-09-28T02:00:25.044Z,5.20
2022-09-28T02:02:56.286Z,5.67
2022-09-28T02:05:26.598Z,7.47
2022-09-28T02:07:58.904Z,6.57
2022-09-28T02:10:29.367Z,6.10
2022-09-28T02:13:01.608Z,6.23
2022-09-28T02:15:32.838Z,6.47
2022-09-28T02:18:01.438Z,6.63
2022-09-28T02:20:31.416Z,5.80
2022-09-28T02:23:01.514Z,5.87
2022-09-28T02:25:32.134Z,5.87
2022-09-28T02:28:03.136Z,6.20
2022-09-28T02:30:32.042Z,5.43
2022-09-28T02:33:03.146Z,5.50
2022-09-28T02:35:31.892Z,5.20
2022-09-28T02:38:00.317Z,5.03
2022-09-28T02:40:31.744Z,5.47
2022-09-28T02:43:06.825Z,4.87
2022-09-28T02:45:49.685Z,5.10
2022-09-28T02:48:31.482Z,5.33
2022-09-28T02:51:14.714Z,5.33
2022-09-28T02:53:48.606Z,4.80
2022-09-28T02:56:27.377Z,5.33
2022-09-28T02:59:02.757Z,4.87
2022-09-28T03:01:35.060Z,5.20
2022-09-28T03:04:08.190Z,5.20
2022-09-28T03:06:40.992Z,5.00
2022-09-28T03:09:12.962Z,5.17
2022-09-28T03:11:44.915Z,5.17
2022-09-28T03:14:15.237Z,5.23
2022-09-28T03:16:45.356Z,5.13
2022-09-28T03:19:14.163Z,5.23
2022-09-28T03:21:42.816Z,5.30
2022-09-28T03:24:11.533Z,4.77
2022-09-28T03:26:40.029Z,5.23
2022-09-28T03:29:08.677Z,5.47
2022-09-28T03:31:38.600Z,5.30
2022-09-28T03:34:07.122Z,5.87
2022-09-28T03:36:35.923Z,5.80
2022-09-28T03:39:04.522Z,6.30
2022-09-28T03:41:32.966Z,6.20
2022-09-28T03:44:01.621Z,6.83
2022-09-28T03:46:30.033Z,6.33
2022-09-28T03:48:59.963Z,6.90
2022-09-28T03:51:28.557Z,6.50
2022-09-28T03:53:57.059Z,6.67
2022-09-28T03:56:25.482Z,7.20
2022-09-28T03:58:54.141Z,6.77
2022-09-28T04:01:22.610Z,7.00
2022-09-28T04:03:55.347Z,7.47
2022-09-28T04:06:25.469Z,7.20
2022-09-28T04:08:53.928Z,7.10
2022-09-28T04:11:22.550Z,7.80
2022-09-28T04:13:51.083Z,7.60
2022-09-28T04:16:19.712Z,7.90
2022-09-28T04:18:48.609Z,7.83
2022-09-28T04:21:17.891Z,8.40
2022-09-28T04:23:47.969Z,8.17
2022-09-28T04:26:18.177Z,8.73
2022-09-28T04:29:06.845Z,8.83
2022-09-28T04:31:39.569Z,8.90
2022-09-28T04:34:08.111Z,8.90
2022-09-28T04:36:36.586Z,9.80
2022-09-28T04:39:06.637Z,9.27
2022-09-28T04:41:35.269Z,9.13
2022-09-28T04:44:04.060Z,8.47
2022-09-28T04:46:32.698Z,8.60
2022-09-28T04:49:01.266Z,9.27
2022-09-28T04:51:32.278Z,8.73
2022-09-28T04:54:00.757Z,9.10
2022-09-28T04:56:30.707Z,9.57
2022-09-28T04:58:59.314Z,9.03
2022-09-28T05:01:27.935Z,9.20
2022-09-28T05:03:56.599Z,9.70
2022-09-28T05:06:28.043Z,9.63
2022-09-28T05:08:57.555Z,10.40
2022-09-28T05:11:26.113Z,9.37
2022-09-28T05:13:55.917Z,9.80
2022-09-28T05:16:25.798Z,10.27
2022-09-28T05:18:56.622Z,9.63
2022-09-28T05:21:25.484Z,10.40
2022-09-28T05:23:56.281Z,10.00
2022-09-28T05:26:24.877Z,10.43
2022-09-28T05:28:53.311Z,10.53
2022-09-28T05:31:23.307Z,9.97
2022-09-28T05:33:51.930Z,9.90
2022-09-28T05:36:20.454Z,9.77
2022-09-28T05:38:48.998Z,9.57
2022-09-28T05:41:17.549Z,9.23
2022-09-28T05:43:46.157Z,9.83
2022-09-28T05:46:15.935Z,9.40
2022-09-28T05:48:45.946Z,9.77
2022-09-28T05:51:15.377Z,9.60
2022-09-28T05:53:43.972Z,9.53
2022-09-28T05:56:12.526Z,9.37
2022-09-28T05:58:40.957Z,9.67
2022-09-28T06:01:09.591Z,9.50
2022-09-28T06:03:38.145Z,9.17
2022-09-28T06:06:08.165Z,9.20
2022-09-28T06:08:36.814Z,9.97
2022-09-28T06:11:05.358Z,9.97
2022-09-28T06:13:34.338Z,8.80
2022-09-28T06:16:05.004Z,9.37
2022-09-28T06:18:33.530Z,9.63
2022-09-28T06:21:01.995Z,9.40
2022-09-28T06:23:32.018Z,9.10
2022-09-28T06:26:01.042Z,9.43
2022-09-28T06:28:29.513Z,9.13
2022-09-28T06:30:58.137Z,9.00
2022-09-28T06:33:26.945Z,9.20
2022-09-28T06:35:55.618Z,8.93
2022-09-28T06:38:24.164Z,8.87
2022-09-28T06:40:54.139Z,8.90
2022-09-28T06:43:22.610Z,9.50
2022-09-28T06:45:53.660Z,8.63
2022-09-28T06:48:22.338Z,8.43
2022-09-28T06:50:51.829Z,7.90
2022-09-28T06:53:20.353Z,8.00
2022-09-28T06:55:49.397Z,7.90
2022-09-28T06:58:20.822Z,8.33
2022-09-28T07:00:50.199Z,7.77
2022-09-28T07:03:19.958Z,7.67
2022-09-28T07:05:50.461Z,7.20
2022-09-28T07:08:19.825Z,7.70
2022-09-28T07:10:49.194Z,7.50
2022-09-28T07:13:44.504Z,7.30
2022-09-28T07:16:08.277Z,6.97
2022-09-28T07:18:36.721Z,6.77
2022-09-28T07:21:17.040Z,7.13
2022-09-28T07:23:54.286Z,6.60
2022-09-28T07:26:24.594Z,7.27
2022-09-28T07:28:56.085Z,6.30
2022-09-28T07:31:26.297Z,6.10
2022-09-28T07:33:55.273Z,6.63
2022-09-28T07:36:23.959Z,6.40
2022-09-28T07:38:52.403Z,6.17
2022-09-28T07:41:32.304Z,5.77
2022-09-28T07:44:05.449Z,6.23
2022-09-28T07:46:34.661Z,5.73
2022-09-28T07:49:08.386Z,6.03
2022-09-28T07:51:44.343Z,5.53
2022-09-28T07:54:12.802Z,6.27
2022-09-28T07:56:41.342Z,5.80
2022-09-28T07:59:11.500Z,5.63
2022-09-28T08:01:39.968Z,5.33
2022-09-28T08:04:08.554Z,5.50
2022-09-28T08:06:37.181Z,5.20
2022-09-28T08:09:05.717Z,5.67
2022-09-28T08:11:34.288Z,5.53
2022-09-28T08:14:02.841Z,5.60
2022-09-28T08:16:32.780Z,5.20
2022-09-28T08:19:01.389Z,5.40
2022-09-28T08:21:47.205Z,4.97
2022-09-28T08:24:16.387Z,4.70
2022-09-28T08:26:44.973Z,4.67
2022-09-28T08:29:13.513Z,5.30
2022-09-28T08:31:43.481Z,4.70
2022-09-28T08:34:11.912Z,5.33
2022-09-28T08:36:40.444Z,4.47
2022-09-28T08:39:09.360Z,4.83
2022-09-28T08:41:42.880Z,4.50
2022-09-28T08:44:16.492Z,4.50
2022-09-28T08:46:47.987Z,4.47
2022-09-28T08:49:27.229Z,3.87
2022-09-28T08:51:58.062Z,4.17
2022-09-28T08:54:30.907Z,4.40
2022-09-28T08:57:01.721Z,4.57
2022-09-28T08:59:33.718Z,4.23
2022-09-28T09:02:05.471Z,4.07
2022-09-28T09:04:35.301Z,3.93
2022-09-28T09:07:14.121Z,3.90
2022-09-28T09:09:47.929Z,3.97
2022-09-28T09:12:21.055Z,4.10
2022-09-28T09:14:59.790Z,4.40
2022-09-28T09:17:35.670Z,3.83
2022-09-28T09:20:08.328Z,3.97
2022-09-28T09:22:41.270Z,3.67
2022-09-28T09:25:19.310Z,3.63
2022-09-28T09:27:58.065Z,3.63
2022-09-28T09:30:30.216Z,3.80
2022-09-28T09:33:23.323Z,3.80
2022-09-28T09:36:03.545Z,4.07
2022-09-28T09:38:43.169Z,3.90
2022-09-28T09:41:17.145Z,3.80
2022-09-28T09:44:06.578Z,3.70
2022-09-28T09:46:38.853Z,3.60
2022-09-28T09:49:12.571Z,3.77
2022-09-28T09:51:43.652Z,3.30
2022-09-28T09:54:17.797Z,3.57
2022-09-28T09:56:49.361Z,2.90
2022-09-28T09:59:24.366Z,3.20
2022-09-28T10:01:54.013Z,3.10
2022-09-28T10:04:26.021Z,3.20
2022-09-28T10:06:58.367Z,3.10
2022-09-28T10:09:28.670Z,2.83
2022-09-28T10:11:57.103Z,2.80
2022-09-28T10:14:26.179Z,2.53
2022-09-28T10:16:55.355Z,2.67
2022-09-28T10:19:30.715Z,3.20
2022-09-28T10:22:02.753Z,2.80
2022-09-28T10:24:32.459Z,2.40
2022-09-28T10:27:05.126Z,2.90
2022-09-28T10:29:39.369Z,3.03
2022-09-28T10:32:19.182Z,2.90
2022-09-28T10:34:51.021Z,2.70
2022-09-28T10:37:20.490Z,2.53
2022-09-28T10:39:51.816Z,2.40
2022-09-28T10:42:21.565Z,2.50
2022-09-28T10:44:52.322Z,2.50
2022-09-28T10:47:21.682Z,2.63
2022-09-28T10:49:52.419Z,2.63
2022-09-28T10:52:37.499Z,2.53
2022-09-28T10:55:25.124Z,2.50
2022-09-28T10:57:54.066Z,2.50
2022-09-28T11:00:33.336Z,2.47
2022-09-28T11:03:02.132Z,2.60
2022-09-28T11:05:32.283Z,2.77
2022-09-28T11:08:02.326Z,2.37
2022-09-28T11:10:33.679Z,2.50
2022-09-28T11:13:02.637Z,2.53
2022-09-28T11:15:32.763Z,2.40
2022-09-28T11:18:19.503Z,2.40
2022-09-28T11:20:49.709Z,2.40
2022-09-28T11:23:20.585Z,2.50
2022-09-28T11:25:59.605Z,2.30
2022-09-28T11:28:31.525Z,2.33
2022-09-28T11:31:00.503Z,2.13
2022-09-28T11:33:31.417Z,2.30
2022-09-28T11:36:07.185Z,2.40
2022-09-28T11:38:41.563Z,2.10
2022-09-28T11:41:27.897Z,2.30
2022-09-28T11:44:07.990Z,2.23
2022-09-28T11:46:42.708Z,2.03
2022-09-28T11:49:17.350Z,2.10
2022-09-28T11:51:48.098Z,2.17
2022-09-28T11:54:23.512Z,2.20
2022-09-28T11:56:52.630Z,2.43
2022-09-28T11:59:24.082Z,2.40
2022-09-28T12:01:54.805Z,2.20
2022-09-28T12:04:25.523Z,2.10
2022-09-28T12:06:59.489Z,2.37
2022-09-28T12:09:32.261Z,2.10
2022-09-28T12:12:03.966Z,2.13
2022-09-28T12:14:35.101Z,2.00
2022-09-28T12:17:08.445Z,1.90
2022-09-28T12:19:40.077Z,1.97
2022-09-28T12:22:15.718Z,2.10
2022-09-28T12:24:45.841Z,2.20
2022-09-28T12:27:16.483Z,2.60
2022-09-28T12:29:47.709Z,2.07
2022-09-28T12:32:24.040Z,2.17
2022-09-28T12:34:52.518Z,2.20
2022-09-28T12:37:27.568Z,2.40
2022-09-28T12:40:02.965Z,2.23
2022-09-28T12:42:41.282Z,2.27
2022-09-28T12:45:38.913Z,2.30
2022-09-28T12:48:25.047Z,2.10
2022-09-28T12:51:00.176Z,2.00
2022-09-28T12:53:40.079Z,2.23
2022-09-28T12:56:16.758Z,1.90
2022-09-28T12:58:56.150Z,2.47
2022-09-28T13:01:33.184Z,2.20
2022-09-28T13:04:12.751Z,2.37
2022-09-28T13:06:49.157Z,2.13
2022-09-28T13:09:21.948Z,2.10
2022-09-28T13:11:56.613Z,2.63
2022-09-28T13:14:36.410Z,2.30
2022-09-28T13:17:08.530Z,2.23
2022-09-28T13:19:40.682Z,2.20
2022-09-28T13:22:13.694Z,2.20
2022-09-28T13:24:45.040Z,2.20
2022-09-28T13:27:17.275Z,2.20
2022-09-28T13:29:46.026Z,2.33
2022-09-28T13:32:15.206Z,2.47
2022-09-28T13:34:43.677Z,2.20
2022-09-28T13:37:21.760Z,2.20
2022-09-28T13:39:52.831Z,2.10
2022-09-28T13:42:30.533Z,2.00
2022-09-28T13:45:13.846Z,2.10
2022-09-28T13:47:57.705Z,1.83
2022-09-28T13:50:32.124Z,1.80
2022-09-28T13:53:05.213Z,1.87
2022-09-28T13:55:39.630Z,2.20
2022-09-28T13:58:16.309Z,1.90
2022-09-28T14:00:49.933Z,1.90
2022-09-28T14:03:27.298Z,1.87
2022-09-28T14:06:22.629Z,2.20
2022-09-28T14:09:06.031Z,1.90
2022-09-28T14:11:55.513Z,1.60
2022-09-28T14:14:46.722Z,2.03
2022-09-28T14:17:41.994Z,1.90
2022-09-28T14:20:12.430Z,2.00
2022-09-28T14:22:48.498Z,2.10
2022-09-28T14:25:19.105Z,2.10
2022-09-28T14:28:02.032Z,2.00
2022-09-28T14:30:37.699Z,2.00
2022-09-28T14:33:17.338Z,2.00
2022-09-28T14:35:47.060Z,1.90
2022-09-28T14:38:34.285Z,1.80
2022-09-28T14:41:13.905Z,2.00
2022-09-28T14:44:00.433Z,1.70
2022-09-28T14:46:39.026Z,1.77
2022-09-28T14:49:27.953Z,1.90
2022-09-28T14:52:03.437Z,1.83
2022-09-28T14:54:40.291Z,1.80
2022-09-28T14:57:10.269Z,1.83
2022-09-28T14:59:44.273Z,1.60
2022-09-28T15:02:17.122Z,1.80
2022-09-28T15:04:47.497Z,1.87
2022-09-28T15:07:21.555Z,1.90
2022-09-28T15:09:50.926Z,1.50
2022-09-28T15:12:22.375Z,1.80
2022-09-28T15:14:55.503Z,2.03
2022-09-28T15:17:25.227Z,1.70
2022-09-28T15:20:00.864Z,1.60
2022-09-28T15:22:30.329Z,1.70
2022-09-28T15:25:02.471Z,1.70
2022-09-28T15:27:36.957Z,1.40
2022-09-28T15:30:18.557Z,1.70
2022-09-28T15:32:47.093Z,1.57
2022-09-28T15:35:20.554Z,1.90
2022-09-28T15:37:52.259Z,1.60
2022-09-28T15:40:22.617Z,1.70
2022-09-28T15:42:51.195Z,1.57
2022-09-28T15:45:29.646Z,1.60
2022-09-28T15:48:12.454Z,1.57
2022-09-28T15:50:45.930Z,1.50
2022-09-28T15:53:19.502Z,1.70
2022-09-28T15:55:52.334Z,1.40
2022-09-28T15:58:22.717Z,1.70
2022-09-28T16:01:13.265Z,1.50
2022-09-28T16:03:41.754Z,1.47
2022-09-28T16:06:11.433Z,1.67
2022-09-28T16:08:41.392Z,1.60
2022-09-28T16:11:14.549Z,1.40
2022-09-28T16:13:50.105Z,1.57
2022-09-28T16:16:20.100Z,1.63
2022-09-28T16:18:49.874Z,1.60
2022-09-28T16:21:27.954Z,1.47
2022-09-28T16:23:57.577Z,1.40
2022-09-28T16:26:32.314Z,1.50
2022-09-28T16:29:01.463Z,1.77
2022-09-28T16:31:34.534Z,1.60
2022-09-28T16:34:11.721Z,1.57
2022-09-28T16:36:45.610Z,1.40
2022-09-28T16:39:14.612Z,1.50
2022-09-28T16:41:44.172Z,1.47
2022-09-28T16:44:17.335Z,1.20
2022-09-28T16:46:47.618Z,1.20
2022-09-28T16:49:18.940Z,1.30
2022-09-28T16:51:48.015Z,1.30
2022-09-28T16:54:35.503Z,1.87
2022-09-28T16:57:05.012Z,1.20
2022-09-28T16:59:33.562Z,1.00
2022-09-28T17:02:03.695Z,1.13
2022-09-28T17:04:32.214Z,1.10
2022-09-28T17:07:00.675Z,1.10
2022-09-28T17:09:29.522Z,1.30
2022-09-28T17:11:58.039Z,1.20
2022-09-28T17:14:26.470Z,1.17
2022-09-28T17:17:08.704Z,1.20
2022-09-28T17:19:40.518Z,1.33
2022-09-28T17:22:10.169Z,1.20
2022-09-28T17:24:38.633Z,0.80
2022-09-28T17:27:07.967Z,1.23
2022-09-28T17:29:36.483Z,1.10
2022-09-28T17:32:05.066Z,1.07
2022-09-28T17:34:33.562Z,1.00
2022-09-28T17:37:03.449Z,0.90
2022-09-28T17:39:31.876Z,1.10
2022-09-28T17:42:00.512Z,1.73
2022-09-28T17:44:29.062Z,0.90
2022-09-28T17:46:57.732Z,0.83
2022-09-28T17:49:26.282Z,1.00
2022-09-28T17:51:55.098Z,1.27
2022-09-28T17:54:26.143Z,0.90
2022-09-28T17:56:55.265Z,0.93
2022-09-28T17:59:23.678Z,0.90
2022-09-28T18:01:52.207Z,1.07
2022-09-28T18:04:47.133Z,0.97
2022-09-28T18:07:09.264Z,0.90
2022-09-28T18:09:39.418Z,1.10
2022-09-28T18:12:08.241Z,1.03
2022-09-28T18:14:36.870Z,1.10
2022-09-28T18:17:05.480Z,1.13
2022-09-28T18:19:33.961Z,1.00
2022-09-28T18:22:02.471Z,0.93
2022-09-28T18:24:32.619Z,1.07
2022-09-28T18:27:02.548Z,1.00
2022-09-28T18:29:33.354Z,1.03
2022-09-28T18:32:02.429Z,0.90
2022-09-28T18:34:30.903Z,0.97
2022-09-28T18:36:59.369Z,0.90
2022-09-28T18:39:27.959Z,1.73
2022-09-28T18:41:56.610Z,1.67
2022-09-28T18:44:26.470Z,1.30
2022-09-28T18:46:55.194Z,0.90
2022-09-28T18:49:23.842Z,1.20
2022-09-28T18:51:52.318Z,1.20
2022-09-28T18:54:20.909Z,1.10
2022-09-28T18:56:51.245Z,1.20
2022-09-28T18:59:19.701Z,1.17
2022-09-28T19:01:49.729Z,1.30
2022-09-28T19:04:20.047Z,1.20
2022-09-28T19:06:52.405Z,1.23
2022-09-28T19:09:22.003Z,1.30
2022-09-28T19:11:51.011Z,1.40
2022-09-28T19:14:19.602Z,1.40
2022-09-28T19:16:49.706Z,1.20
2022-09-28T19:19:19.203Z,1.30
2022-09-28T19:21:47.996Z,1.20
2022-09-28T19:24:16.963Z,1.13
2022-09-28T19:26:46.397Z,1.37
2022-09-28T19:29:15.197Z,1.57
2022-09-28T19:31:44.403Z,1.13
2022-09-28T19:34:14.567Z,1.80
2022-09-28T19:36:43.682Z,1.50
2022-09-28T19:39:14.800Z,1.40
2022-09-28T19:41:49.606Z,1.63
2022-09-28T19:44:23.183Z,1.90
2022-09-28T19:46:52.819Z,1.30
2022-09-28T19:49:23.248Z,1.60
2022-09-28T19:52:13.822Z,1.80
2022-09-28T19:54:43.916Z,1.67
2022-09-28T19:57:12.609Z,1.50
2022-09-28T19:59:41.037Z,1.60
2022-09-28T20:02:10.424Z,1.57
2022-09-28T20:04:40.345Z,1.40
2022-09-28T20:07:08.830Z,1.43
2022-09-28T20:09:37.393Z,1.30
2022-09-28T20:12:06.030Z,1.33
2022-09-28T20:14:39.495Z,1.57
2022-09-28T20:17:09.290Z,1.33
2022-09-28T20:19:37.839Z,1.40
2022-09-28T20:22:07.669Z,1.30
2022-09-28T20:24:36.247Z,1.10
2022-09-28T20:27:04.678Z,1.20
2022-09-28T20:29:33.377Z,1.23
2022-09-28T20:32:04.092Z,1.20
2022-09-28T20:34:33.633Z,1.43
2022-09-28T20:37:02.612Z,1.20
2022-09-28T20:39:32.690Z,1.30
2022-09-28T20:42:01.115Z,1.30
2022-09-28T20:44:29.513Z,1.27
2022-09-28T20:46:58.308Z,1.30
2022-09-28T20:49:28.133Z,1.60
2022-09-28T20:51:56.683Z,1.10
2022-09-28T20:54:25.735Z,1.30
2022-09-28T20:56:55.564Z,1.60
2022-09-28T20:59:26.516Z,1.30
2022-09-28T21:01:55.089Z,1.37
2022-09-28T21:04:23.539Z,1.30
2022-09-28T21:06:52.279Z,1.47
2022-09-28T21:09:20.714Z,1.30
2022-09-28T21:11:49.146Z,1.50
2022-09-28T21:14:19.239Z,1.30
2022-09-28T21:16:47.764Z,1.60
2022-09-28T21:19:16.210Z,1.73
2022-09-28T21:21:44.757Z,1.50
2022-09-28T21:24:13.178Z,2.20
2022-09-28T21:26:41.594Z,2.20
2022-09-28T21:29:13.525Z,1.70
2022-09-28T21:31:45.715Z,1.50
2022-09-28T21:34:14.733Z,1.70
2022-09-28T21:36:43.349Z,1.77
2022-09-28T21:39:12.206Z,1.80
2022-09-28T21:41:40.751Z,1.70
2022-09-28T21:44:09.739Z,1.50
2022-09-28T21:46:38.834Z,1.77
2022-09-28T21:49:09.676Z,1.80
2022-09-28T21:51:38.617Z,1.80
2022-09-28T21:54:07.586Z,1.50
2022-09-28T21:56:36.150Z,1.70
2022-09-28T21:59:04.630Z,1.80
2022-09-28T22:01:33.210Z,1.80
2022-09-28T22:04:01.894Z,1.73
2022-09-28T22:06:31.715Z,1.73
2022-09-28T22:09:00.317Z,2.30
2022-09-28T22:11:29.613Z,1.87
2022-09-28T22:13:58.487Z,2.03
2022-09-28T22:16:28.186Z,1.83
2022-09-28T22:18:56.942Z,2.07
2022-09-28T22:21:25.925Z,1.60
2022-09-28T22:23:55.882Z,1.70
2022-09-28T22:26:25.513Z,1.73
2022-09-28T22:28:54.903Z,1.60
2022-09-28T22:31:24.470Z,1.87
2022-09-28T22:33:53.229Z,1.63
2022-09-28T22:36:21.671Z,2.83
2022-09-28T22:38:50.736Z,2.03
2022-09-28T22:41:21.651Z,2.00
2022-09-28T22:43:50.496Z,1.80
2022-09-28T22:46:21.081Z,1.80
2022-09-28T22:48:50.181Z,1.80
2022-09-28T22:51:18.707Z,1.90
2022-09-28T22:53:47.658Z,1.90
2022-09-28T22:56:18.921Z,2.00
2022-09-28T22:58:48.995Z,1.53
2022-09-28T23:01:18.654Z,1.77
2022-09-28T23:03:47.145Z,1.87
2022-09-28T23:06:16.612Z,1.80
2022-09-28T23:08:45.708Z,1.90
2022-09-28T23:11:14.159Z,1.50
2022-09-28T23:13:42.648Z,1.90
2022-09-28T23:16:15.079Z,1.90
2022-09-28T23:18:43.689Z,1.70
2022-09-28T23:21:13.028Z,2.00
2022-09-28T23:23:41.929Z,2.10
2022-09-28T23:26:13.747Z,1.90
2022-09-28T23:28:42.327Z,1.90
2022-09-28T23:31:11.739Z,1.77
2022-09-28T23:33:41.952Z,1.70
2022-09-28T23:36:10.413Z,1.80
2022-09-28T23:38:38.820Z,2.20
2022-09-28T23:41:07.483Z,1.87
2022-09-28T23:43:36.226Z,1.80
2022-09-28T23:46:04.769Z,2.00
2022-09-28T23:48:33.711Z,1.77
2022-09-28T23:51:03.588Z,2.17
2022-09-28T23:53:33.257Z,2.30
2022-09-28T23:56:01.976Z,1.83
2022-09-28T23:58:30.360Z,1.80
